• Join FlightAware (Why Join?)
  • Login
  • US Flag 
11:38AM EDT


 

Airport Tracker/Info


-or-


 

Live Flight TrackerFlight Track Log ✈ N882EM ✈ 28-Apr-2013 ✈ F98 - KGTU

Flight Track Log - Related Links

Times and Time Zones

All times are in EDT time to prevent confusion due to time zone crossing. See the N882EM flight status page for this flight to view local times or setup timezone preferences in your user account.

Time Position Orientation Groundspeed Altitude Reporting Facility
EDT Latitude Longitude Course Direction KTS MPH feet Rate Location/Type
03:53PM 33.1222 -102.6617 121° Southeast 176 203 7,900  Level Fort Worth Center
03:54PM 33.1072 -102.6161 111° Southeast 163 188 8,800 900 Climbing Fort Worth Center
03:55PM 33.0883 -102.5728 117° Southeast 152 175 9,700 720 Climbing Fort Worth Center
03:56PM 33.0653 -102.5244 120° Southeast 152 175 10,300 600 Climbing Fort Worth Center
03:57PM 33.0461 -102.4811 118° Southeast 157 181 10,900 600 Climbing Fort Worth Center
03:58PM 33.0250 -102.4353 119° Southeast 157 181 11,600 780 Climbing Fort Worth Center
03:59PM 33.0837 -102.5405 121° Southeast  Level Estimated
03:59PM 33.0058 -102.3922 118° Southeast 164 189 12,500  Level Fort Worth Center
04:00PM 32.9806 -102.3414 121° Southeast 165 190 13,000 240 Climbing Fort Worth Center
04:01PM 32.9614 -102.2981 118° Southeast 171 197 13,000  Level Fort Worth Center
04:02PM 32.9347 -102.2347 117° Southeast 183 211 13,000  Level Fort Worth Center
04:03PM 32.9097 -102.1767 117° Southeast 183 211 13,000  Level Fort Worth Center
04:04PM 32.8847 -102.1233 119° Southeast 189 217 13,000  Level Fort Worth Center
04:05PM 32.8575 -102.0675 120° Southeast 189 217 13,000  Level Fort Worth Center
04:06PM 32.8264 -102.0089 122° Southeast 195 224 13,000  Level Fort Worth Center
04:07PM 32.8031 -101.9583 119° Southeast 189 217 13,000  Level Fort Worth Center
04:08PM 32.7761 -101.9003 119° Southeast 189 217 13,000  Level Fort Worth Center
04:09PM 32.7547 -101.8497 117° Southeast 189 217 13,000  Level Fort Worth Center
04:10PM 32.7297 -101.7942 118° Southeast 189 217 13,000  Level Fort Worth Center
04:11PM 32.7025 -101.7386 120° Southeast 189 217 13,000  Level Fort Worth Center
04:12PM 32.6772 -101.6806 117° Southeast 189 217 13,000  Level Fort Worth Center
04:13PM 32.6519 -101.6250 118° Southeast 189 217 13,000  Level Fort Worth Center
04:14PM 32.6264 -101.5744 121° Southeast 189 217 13,000  Level Fort Worth Center
04:15PM 32.6075 -101.5194 112° Southeast 189 217 13,000  Level Fort Worth Center
04:16PM 32.5800 -101.4664 122° Southeast 189 217 13,000  Level Fort Worth Center
04:17PM 32.5525 -101.4086 119° Southeast 189 217 13,000  Level Fort Worth Center
04:18PM 32.5272 -101.3556 119° Southeast 189 217 13,000  Level Fort Worth Center
04:19PM 32.4997 -101.3003 121° Southeast 189 217 13,000  Level Fort Worth Center
04:20PM 32.4719 -101.2472 122° Southeast 189 217 13,000  Level Fort Worth Center
04:21PM 32.4464 -101.1944 120° Southeast 189 217 13,000  Level Fort Worth Center
04:22PM 32.4231 -101.1394 117° Southeast 189 217 13,000  Level Fort Worth Center
04:23PM 32.3997 -101.0844 117° Southeast 189 217 13,000  Level Fort Worth Center
04:24PM 32.3719 -101.0317 122° Southeast 189 217 13,000  Level Fort Worth Center
04:25PM 32.3444 -100.9764 120° Southeast 189 217 13,000  Level Fort Worth Center
04:26PM 32.3250 -100.9192 112° Southeast 189 217 13,000 -240 Level Fort Worth Center
04:27PM 32.3017 -100.8617 116° Southeast 184 212 12,600 -480 Descending Fort Worth Center
04:28PM 32.2803 -100.7969 111° Southeast 189 217 12,100 -360 Descending Fort Worth Center
04:29PM 32.2611 -100.7372 111° Southeast 194 223 11,900 -300 Descending Fort Worth Center
04:30PM 32.2400 -100.6703 110° East 199 229 11,500 -360 Descending Fort Worth Center
04:31PM 32.2142 -100.6128 118° Southeast 199 229 11,200 -240 Descending Fort Worth Center
04:32PM 32.1883 -100.5628 121° Southeast 194 223 11,100 -60 Descending Fort Worth Center
04:33PM 32.1583 -100.5175 128° Southeast 184 212 11,100  Level Fort Worth Center
04:34PM 32.1300 -100.4750 128° Southeast 172 198 11,100  Level Fort Worth Center
04:35PM 32.0997 -100.4322 130° Southeast 167 192 11,100  Level Fort Worth Center
04:36PM 32.0675 -100.3797 126° Southeast 173 199 11,100  Level Fort Worth Center
04:37PM 32.0394 -100.3347 126° Southeast 173 199 11,100  Level Fort Worth Center
04:38PM 32.0114 -100.2872 125° Southeast 179 206 11,100  Level Fort Worth Center
04:39PM 31.9853 -100.2375 122° Southeast 180 207 11,100  Level Fort Worth Center
04:40PM 31.9614 -100.1900 121° Southeast 171 197 11,100  Level Fort Worth Center
04:41PM 31.9353 -100.1403 122° Southeast 185 213 11,100  Level Fort Worth Center
04:42PM 31.9133 -100.0956 120° Southeast 180 207 11,100  Level Fort Worth Center
04:43PM 31.8872 -100.0436 121° Southeast 180 207 11,100  Level Fort Worth Center
04:44PM 31.8611 -99.9914 120° Southeast 180 207 11,100  Level Fort Worth Center
04:45PM 31.8369 -99.9442 121° Southeast 175 201 11,100  Level Fort Worth Center
04:46PM 31.8089 -99.8947 124° Southeast 175 201 11,100  Level Fort Worth Center
04:47PM 31.7847 -99.8450 120° Southeast 175 201 11,100  Level Fort Worth Center
04:48PM 31.7606 -99.7931 119° Southeast 180 207 11,100  Level Fort Worth Center
04:49PM 31.7344 -99.7436 122° Southeast 180 207 11,100  Level Fort Worth Center
04:50PM 31.7103 -99.6917 119° Southeast 179 206 11,100  Level Fort Worth Center
04:51PM 31.6842 -99.6375 120° Southeast 184 212 11,100  Level Fort Worth Center
04:52PM 31.6578 -99.5881 122° Southeast 184 212 11,100  Level Fort Worth Center
04:53PM 31.6336 -99.5386 120° Southeast 184 212 11,100  Level Fort Worth Center
04:54PM 31.6136 -99.4992 121° Southeast 184 212 11,100 -120 Level Fort Worth Center
04:55PM 31.5853 -99.4422 120° Southeast 184 212 10,900 -300 Descending Fort Worth Center
04:56PM 31.5608 -99.3906 119° Southeast 184 212 10,600 -360 Descending Fort Worth Center
04:57PM 31.5347 -99.3364 119° Southeast 189 217 10,200 -480 Descending Fort Worth Center
04:59PM 31.4944 -99.2511 119° Southeast 190 219 9,500 -360 Descending Houston Center
05:00PM 31.4681 -99.1969 120° Southeast 189 217 9,300 -240 Descending Houston Center
05:01PM 31.4408 -99.1458 122° Southeast 184 212 9,100 -120 Descending Houston Center
05:02PM 31.4150 -99.0961 121° Southeast 180 207 9,100  Level Houston Center
05:03PM 31.3897 -99.0481 122° Southeast 174 200 9,100  Level Houston Center
05:04PM 31.3594 -98.9908 122° Southeast 175 201 9,100  Level Houston Center
05:05PM 31.3339 -98.9411 121° Southeast 176 203 9,100  Level Houston Center
05:06PM 31.3081 -98.8936 122° Southeast 173 199 9,100  Level Houston Center
05:07PM 31.2853 -98.8447 119° Southeast 171 197 9,100  Level Houston Center
05:08PM 31.2606 -98.7967 121° Southeast 170 196 9,100  Level Houston Center
05:09PM 31.2361 -98.7475 120° Southeast 173 199 9,100  Level Houston Center
05:10PM 31.2119 -98.6975 119° Southeast 174 200 9,100  Level Houston Center
05:11PM 31.1814 -98.6397 122° Southeast 176 203 9,100  Level Houston Center
05:12PM 31.1594 -98.6078 129° Southeast 172 198 9,100  Level Fort Worth Center
05:13PM 31.1453 -98.5758 117° Southeast 170 196 9,100  Level Fort Worth Center
05:14PM 31.1206 -98.5319 123° Southeast 173 199 9,100  Level Fort Worth Center
05:14PM 31.1042 -98.4953 118° Southeast 176 203 9,100  Level Houston Center